Time;durP1;ratioP1;P1;durP2;ratioP2;P2;SDS_P1;SDS_P2;PMS_P1;PMS_P2;Temp;Humidity;BMP_temperature;BMP_pressure;BME280_temperature;BME280_humidity;BME280_pressure;Samples;Min_cycle;Max_cycle;Signal;HPM_P1;HPM_P2
2023/04/22 00:01:23;;;;;;;11.98;7.28;;;;;;;;;;4955362;28;20031;-72
2023/04/22 00:03:49;;;;;;;12.07;6.38;;;;;;;;;;4956822;29;20037;-74
2023/04/22 00:06:15;;;;;;;13.35;6.53;;;;;;;;;;4955095;29;20031;-75
2023/04/22 00:08:41;;;;;;;18.33;8.07;;;;;;;;;;4954570;29;20020;-75
2023/04/22 00:11:07;;;;;;;12.55;6.82;;;;;;;;;;4955170;28;20023;-73
2023/04/22 00:13:33;;;;;;;13.27;6.55;;;;;;;;;;4955684;29;20054;-74
2023/04/22 00:15:59;;;;;;;11.90;6.75;;;;;;;;;;4955512;29;20522;-72
2023/04/22 00:18:25;;;;;;;10.35;5.90;;;;;;;;;;4954316;29;20138;-73
2023/04/22 00:20:51;;;;;;;10.95;6.50;;;;;;;;;;4955717;29;20410;-75
2023/04/22 00:23:18;;;;;;;13.02;7.28;;;;;;;;;;4953793;28;20019;-72
2023/04/22 00:25:44;;;;;;;15.80;7.85;;;;;;;;;;4954854;29;20058;-74
2023/04/22 00:28:10;;;;;;;12.82;7.15;;;;;;;;;;4953926;29;20110;-76
2023/04/22 00:30:36;;;;;;;13.20;7.72;;;;;;;;;;4955124;29;20066;-76
2023/04/22 00:33:02;;;;;;;13.90;7.72;;;;;;;;;;4954785;28;20038;-75
2023/04/22 00:35:28;;;;;;;11.38;7.70;;;;;;;;;;4952120;28;20027;-76
2023/04/22 00:37:54;;;;;;;15.40;7.82;;;;;;;;;;4954717;28;20046;-75
2023/04/22 00:40:20;;;;;;;11.82;7.30;;;;;;;;;;4955732;28;20031;-75
2023/04/22 00:42:49;;;;;;;10.15;6.95;;;;;;;;;;4960167;28;20036;-73
2023/04/22 00:45:18;;;;;;;13.80;8.02;;;;;;;;;;4954842;29;20027;-72
2023/04/22 00:47:45;;;;;;;13.65;7.68;;;;;;;;;;4951570;28;20015;-73
2023/04/22 00:50:11;;;;;;;11.77;7.45;;;;;;;;;;4954409;29;20030;-73
2023/04/22 00:52:37;;;;;;;13.45;7.80;;;;;;;;;;4954400;28;20019;-72
2023/04/22 00:55:03;;;;;;;14.48;8.02;;;;;;;;;;4954415;28;20023;-72
2023/04/22 00:57:30;;;;;;;11.90;7.60;;;;;;;;;;4953776;29;20552;-72
2023/04/22 00:59:56;;;;;;;14.02;8.13;;;;;;;;;;4954274;29;20090;-72
2023/04/22 01:02:22;;;;;;;16.83;7.50;;;;;;;;;;4953945;28;20654;-72
2023/04/22 01:04:49;;;;;;;13.68;7.95;;;;;;;;;;4954528;29;20034;-74
2023/04/22 01:07:15;;;;;;;13.27;8.23;;;;;;;;;;4953722;29;20516;-75
2023/04/22 01:09:41;;;;;;;13.80;7.93;;;;;;;;;;4954243;28;20761;-74
2023/04/22 01:12:07;;;;;;;12.00;8.43;;;;;;;;;;4954114;28;20023;-75
2023/04/22 01:14:34;;;;;;;14.13;8.05;;;;;;;;;;4954263;29;20537;-74
2023/04/22 01:17:01;;;;;;;13.35;8.73;;;;;;;;;;4953617;28;20078;-72
2023/04/22 01:19:28;;;;;;;15.00;8.52;;;;;;;;;;4953824;29;20038;-73
2023/04/22 01:21:55;;;;;;;13.10;9.15;;;;;;;;;;4953866;28;20486;-73
2023/04/22 01:24:21;;;;;;;13.27;8.15;;;;;;;;;;4953849;29;20575;-73
2023/04/22 01:26:47;;;;;;;12.88;8.00;;;;;;;;;;4954716;29;20019;-74
2023/04/22 01:29:14;;;;;;;10.23;7.93;;;;;;;;;;4953179;29;20127;-73
2023/04/22 01:31:40;;;;;;;12.82;9.23;;;;;;;;;;4953991;28;20023;-73
2023/04/22 01:34:06;;;;;;;17.55;8.98;;;;;;;;;;4953541;29;20486;-73
2023/04/22 01:36:32;;;;;;;10.40;7.68;;;;;;;;;;4953785;29;20046;-73
2023/04/22 01:38:59;;;;;;;13.07;8.60;;;;;;;;;;4953092;29;20023;-72
2023/04/22 01:41:25;;;;;;;12.52;8.05;;;;;;;;;;4953864;28;20055;-73
2023/04/22 01:43:57;;;;;;;10.93;8.30;;;;;;;;;;4953822;28;20119;-73
2023/04/22 01:46:23;;;;;;;10.85;8.50;;;;;;;;;;4953554;29;20058;-73
2023/04/22 01:48:50;;;;;;;14.35;8.45;;;;;;;;;;4951947;28;20067;-73
2023/04/22 01:51:19;;;;;;;10.77;7.80;;;;;;;;;;4953386;28;20035;-74
2023/04/22 01:53:46;;;;;;;15.27;8.60;;;;;;;;;;4953463;29;20686;-73
2023/04/22 01:56:12;;;;;;;15.90;8.40;;;;;;;;;;4953357;28;20040;-73
2023/04/22 01:58:39;;;;;;;15.98;8.15;;;;;;;;;;4952695;29;20038;-73
2023/04/22 02:01:05;;;;;;;19.33;8.93;;;;;;;;;;4953250;28;20085;-73
2023/04/22 02:03:32;;;;;;;11.20;7.85;;;;;;;;;;4953545;29;20035;-73
2023/04/22 02:05:58;;;;;;;15.18;8.90;;;;;;;;;;4953412;29;20038;-73
2023/04/22 02:08:24;;;;;;;12.90;10.10;;;;;;;;;;4952344;29;20031;-72
2023/04/22 02:10:49;;;;;;;16.05;9.43;;;;;;;;;;4953228;29;20027;-73
2023/04/22 02:13:15;;;;;;;14.93;9.30;;;;;;;;;;4952966;28;20027;-73
2023/04/22 02:15:41;;;;;;;13.85;9.05;;;;;;;;;;4935880;29;20243;-73
2023/04/22 02:18:09;;;;;;;15.27;9.75;;;;;;;;;;4952072;28;20031;-74
2023/04/22 02:20:35;;;;;;;15.10;9.43;;;;;;;;;;4953024;29;20490;-73
2023/04/22 02:23:01;;;;;;;20.42;9.93;;;;;;;;;;4953073;28;20031;-73
2023/04/22 02:25:28;;;;;;;17.88;10.05;;;;;;;;;;4952997;28;20393;-73
2023/04/22 02:27:54;;;;;;;14.55;9.60;;;;;;;;;;4952097;29;20541;-73
2023/04/22 02:30:19;;;;;;;14.95;9.65;;;;;;;;;;4952718;29;20106;-73
2023/04/22 02:32:45;;;;;;;21.02;9.93;;;;;;;;;;4952925;28;20018;-73
2023/04/22 02:35:12;;;;;;;15.02;9.40;;;;;;;;;;4952815;28;20031;-72
2023/04/22 02:37:38;;;;;;;14.43;9.65;;;;;;;;;;4952283;29;20031;-73
2023/04/22 02:40:04;;;;;;;13.52;9.55;;;;;;;;;;4952682;29;20442;-72
2023/04/22 02:42:30;;;;;;;18.55;9.57;;;;;;;;;;4953507;28;20417;-72
2023/04/22 02:44:56;;;;;;;15.65;9.20;;;;;;;;;;4953488;29;20027;-73
2023/04/22 02:47:23;;;;;;;13.60;9.95;;;;;;;;;;4953455;29;20394;-72
2023/04/22 02:49:49;;;;;;;16.15;9.80;;;;;;;;;;4953867;29;20114;-73
2023/04/22 02:52:15;;;;;;;15.27;10.68;;;;;;;;;;4953811;28;20497;-73
2023/04/22 02:54:41;;;;;;;13.32;9.85;;;;;;;;;;4953641;29;20118;-74
2023/04/22 02:57:07;;;;;;;14.30;9.57;;;;;;;;;;4953024;29;20058;-75
2023/04/22 02:59:34;;;;;;;13.27;9.23;;;;;;;;;;4954114;28;20031;-73
2023/04/22 03:02:00;;;;;;;16.98;10.63;;;;;;;;;;4956263;28;20077;-74
2023/04/22 03:04:26;;;;;;;19.55;10.70;;;;;;;;;;4956364;29;20178;-73
2023/04/22 03:06:52;;;;;;;16.25;9.93;;;;;;;;;;4956841;29;20537;-73
2023/04/22 03:09:18;;;;;;;11.73;9.00;;;;;;;;;;4956581;29;20020;-72
2023/04/22 03:11:45;;;;;;;15.02;9.93;;;;;;;;;;4955080;29;20405;-73
2023/04/22 03:14:11;;;;;;;15.60;9.25;;;;;;;;;;4956195;29;20494;-73
2023/04/22 03:16:37;;;;;;;15.38;9.88;;;;;;;;;;4956090;29;20019;-73
2023/04/22 03:19:03;;;;;;;12.93;9.60;;;;;;;;;;4955684;29;20034;-73
2023/04/22 03:21:31;;;;;;;12.98;9.68;;;;;;;;;;4956310;28;20106;-73
2023/04/22 03:23:57;;;;;;;14.98;9.15;;;;;;;;;;4956223;28;20390;-73
2023/04/22 03:26:23;;;;;;;15.48;10.30;;;;;;;;;;4955845;29;20028;-73
2023/04/22 03:28:49;;;;;;;13.57;10.00;;;;;;;;;;4955104;29;20082;-74
2023/04/22 03:31:15;;;;;;;14.50;9.32;;;;;;;;;;4938701;28;20027;-74
2023/04/22 03:33:41;;;;;;;17.90;10.07;;;;;;;;;;4956030;29;20115;-74
2023/04/22 03:36:07;;;;;;;15.82;9.98;;;;;;;;;;4955793;29;20031;-73
2023/04/22 03:38:33;;;;;;;14.15;10.05;;;;;;;;;;4955285;29;20024;-74
2023/04/22 03:40:59;;;;;;;15.15;9.65;;;;;;;;;;4955969;28;20545;-74
2023/04/22 03:43:25;;;;;;;16.48;9.82;;;;;;;;;;4955931;28;20031;-74
2023/04/22 03:45:51;;;;;;;15.68;10.10;;;;;;;;;;4955688;28;20078;-76
2023/04/22 03:48:17;;;;;;;13.50;9.90;;;;;;;;;;4954820;29;20030;-75
2023/04/22 03:50:43;;;;;;;13.75;9.30;;;;;;;;;;4955640;29;20394;-76
2023/04/22 03:53:09;;;;;;;19.00;10.48;;;;;;;;;;4956527;28;20034;-73
2023/04/22 03:55:35;;;;;;;11.05;9.43;;;;;;;;;;4955709;29;20027;-72
2023/04/22 03:58:01;;;;;;;16.05;9.90;;;;;;;;;;4954734;28;20603;-73
2023/04/22 04:00:27;;;;;;;16.77;10.95;;;;;;;;;;4954056;29;20027;-73
2023/04/22 04:02:53;;;;;;;15.73;10.82;;;;;;;;;;4955560;28;20039;-73
2023/04/22 04:05:19;;;;;;;18.13;9.63;;;;;;;;;;4955829;29;20454;-72
2023/04/22 04:07:45;;;;;;;13.70;10.35;;;;;;;;;;4955689;28;20039;-73
2023/04/22 04:10:11;;;;;;;14.95;10.05;;;;;;;;;;4955180;28;20486;-73
2023/04/22 04:12:37;;;;;;;17.30;10.63;;;;;;;;;;4955341;28;20020;-72
2023/04/22 04:15:03;;;;;;;14.18;9.88;;;;;;;;;;4955510;29;20035;-73
2023/04/22 04:17:30;;;;;;;17.75;8.85;;;;;;;;;;4955524;28;20024;-73
2023/04/22 04:19:56;;;;;;;16.45;9.38;;;;;;;;;;4955678;29;20023;-75
2023/04/22 04:22:22;;;;;;;11.35;8.63;;;;;;;;;;4952741;28;20066;-76
2023/04/22 04:24:48;;;;;;;14.95;9.40;;;;;;;;;;4955090;29;20027;-74
2023/04/22 04:27:14;;;;;;;14.07;9.20;;;;;;;;;;4953912;28;20030;-74
2023/04/22 04:29:41;;;;;;;13.70;9.60;;;;;;;;;;4955154;29;20091;-74
2023/04/22 04:32:09;;;;;;;16.42;8.93;;;;;;;;;;4955793;28;20027;-74
2023/04/22 04:34:38;;;;;;;11.70;8.43;;;;;;;;;;4954033;28;20034;-74
2023/04/22 04:37:04;;;;;;;14.57;8.63;;;;;;;;;;4953810;28;20025;-75
2023/04/22 04:39:31;;;;;;;10.80;8.30;;;;;;;;;;4950160;28;20114;-74
2023/04/22 04:41:59;;;;;;;16.63;8.63;;;;;;;;;;4955048;28;20023;-73
2023/04/22 04:44:26;;;;;;;14.57;8.65;;;;;;;;;;4954977;28;20020;-73
2023/04/22 04:46:53;;;;;;;12.23;7.93;;;;;;;;;;4953595;28;20023;-73
2023/04/22 04:49:19;;;;;;;11.55;7.70;;;;;;;;;;4956675;28;20043;-74
2023/04/22 04:51:45;;;;;;;13.70;7.63;;;;;;;;;;4955515;28;20081;-73
2023/04/22 04:54:11;;;;;;;12.93;8.25;;;;;;;;;;4954830;29;20106;-73
2023/04/22 04:56:37;;;;;;;9.57;7.47;;;;;;;;;;4953828;29;20023;-74
2023/04/22 04:59:03;;;;;;;12.27;8.07;;;;;;;;;;4955642;29;20485;-74
2023/04/22 05:01:29;;;;;;;12.10;7.70;;;;;;;;;;4955671;28;20167;-74
2023/04/22 05:03:55;;;;;;;15.57;8.43;;;;;;;;;;4956064;28;20031;-74
2023/04/22 05:06:21;;;;;;;12.45;7.63;;;;;;;;;;4955830;29;20494;-74
2023/04/22 05:08:47;;;;;;;10.32;7.85;;;;;;;;;;4954809;29;20032;-74
2023/04/22 05:11:13;;;;;;;11.55;7.78;;;;;;;;;;4955138;28;20143;-72
2023/04/22 05:13:39;;;;;;;14.10;7.97;;;;;;;;;;4954619;29;20482;-72
2023/04/22 05:16:05;;;;;;;13.25;7.97;;;;;;;;;;4954663;29;20047;-73
2023/04/22 05:18:31;;;;;;;12.90;7.72;;;;;;;;;;4954484;29;20030;-73
2023/04/22 05:20:58;;;;;;;11.90;8.45;;;;;;;;;;4954460;28;20031;-73
2023/04/22 05:23:24;;;;;;;15.80;7.82;;;;;;;;;;4953019;28;20055;-72
2023/04/22 05:25:50;;;;;;;11.30;7.75;;;;;;;;;;4954419;29;20191;-73
2023/04/22 05:28:17;;;;;;;11.93;7.78;;;;;;;;;;4954076;28;20102;-71
2023/04/22 05:30:43;;;;;;;15.70;7.88;;;;;;;;;;4954295;29;20027;-73
2023/04/22 05:33:09;;;;;;;14.25;7.60;;;;;;;;;;4954293;28;20051;-73
2023/04/22 05:35:35;;;;;;;13.10;7.00;;;;;;;;;;4954201;28;20114;-73
2023/04/22 05:38:02;;;;;;;11.73;7.90;;;;;;;;;;4953795;29;20486;-73
2023/04/22 05:40:28;;;;;;;10.00;7.07;;;;;;;;;;4954152;28;20031;-73
2023/04/22 05:42:54;;;;;;;10.18;7.72;;;;;;;;;;4954129;28;20031;-73
2023/04/22 05:45:20;;;;;;;11.88;7.75;;;;;;;;;;4954001;28;20027;-73
2023/04/22 05:47:46;;;;;;;12.13;8.02;;;;;;;;;;4953901;29;20111;-73
2023/04/22 05:50:12;;;;;;;11.05;7.85;;;;;;;;;;4953831;28;20095;-73
2023/04/22 05:52:38;;;;;;;12.45;7.60;;;;;;;;;;4953820;28;20019;-73
2023/04/22 05:55:04;;;;;;;12.55;7.32;;;;;;;;;;4953897;29;20031;-73
2023/04/22 05:57:31;;;;;;;10.15;7.82;;;;;;;;;;4953344;29;20035;-75
2023/04/22 05:59:58;;;;;;;8.68;6.18;;;;;;;;;;4953908;29;20071;-73
2023/04/22 06:02:24;;;;;;;10.93;7.13;;;;;;;;;;4953477;28;20059;-73
2023/04/22 06:04:50;;;;;;;11.90;7.40;;;;;;;;;;4954803;28;20151;-73
2023/04/22 06:07:16;;;;;;;8.98;7.05;;;;;;;;;;4953461;28;20034;-73
2023/04/22 06:09:42;;;;;;;13.55;6.95;;;;;;;;;;4953723;29;20035;-73
2023/04/22 06:12:08;;;;;;;12.65;6.97;;;;;;;;;;4953316;28;20542;-73
2023/04/22 06:14:34;;;;;;;9.10;7.38;;;;;;;;;;4953838;29;20023;-74
2023/04/22 06:17:01;;;;;;;10.40;6.88;;;;;;;;;;4953429;29;20089;-73
2023/04/22 06:19:27;;;;;;;10.40;6.78;;;;;;;;;;4953498;29;20556;-73
2023/04/22 06:21:53;;;;;;;8.25;6.82;;;;;;;;;;4953422;28;20035;-73
2023/04/22 06:24:19;;;;;;;8.98;6.63;;;;;;;;;;4951450;28;20024;-72
2023/04/22 06:26:45;;;;;;;10.32;6.97;;;;;;;;;;4953397;29;20094;-73
2023/04/22 06:29:11;;;;;;;10.80;6.88;;;;;;;;;;4953379;29;20445;-73
2023/04/22 06:31:37;;;;;;;11.23;6.90;;;;;;;;;;4953386;28;20023;-73
2023/04/22 06:34:03;;;;;;;9.57;6.60;;;;;;;;;;4952670;29;20031;-73
2023/04/22 06:36:31;;;;;;;10.40;6.78;;;;;;;;;;4953458;28;20023;-74
2023/04/22 06:38:57;;;;;;;9.68;6.30;;;;;;;;;;4953041;29;20049;-75
2023/04/22 06:41:23;;;;;;;10.60;6.80;;;;;;;;;;4952187;28;20102;-75
2023/04/22 06:43:49;;;;;;;8.02;6.75;;;;;;;;;;4953141;29;20027;-76
2023/04/22 06:46:16;;;;;;;12.75;7.00;;;;;;;;;;4952569;29;20028;-73
2023/04/22 06:48:42;;;;;;;11.60;7.55;;;;;;;;;;4952098;29;20050;-73
2023/04/22 06:51:08;;;;;;;9.52;6.75;;;;;;;;;;4952934;28;20023;-74
2023/04/22 06:53:34;;;;;;;10.32;7.32;;;;;;;;;;4953057;29;20027;-74
2023/04/22 06:56:00;;;;;;;8.50;6.43;;;;;;;;;;4948623;29;20528;-75
2023/04/22 06:58:26;;;;;;;9.15;6.80;;;;;;;;;;4952845;29;20019;-75
2023/04/22 07:00:52;;;;;;;10.05;7.00;;;;;;;;;;4952811;28;20517;-73
2023/04/22 07:03:18;;;;;;;10.05;6.55;;;;;;;;;;4952811;28;20038;-75
2023/04/22 07:05:45;;;;;;;8.85;6.68;;;;;;;;;;4952851;29;20060;-76
2023/04/22 07:08:11;;;;;;;10.70;6.07;;;;;;;;;;4952605;28;20390;-75
2023/04/22 07:10:37;;;;;;;7.28;6.22;;;;;;;;;;4952916;29;20094;-74
2023/04/22 07:13:03;;;;;;;10.90;6.30;;;;;;;;;;4952965;28;20489;-74
2023/04/22 07:15:29;;;;;;;9.15;6.75;;;;;;;;;;4952995;29;20078;-73
2023/04/22 07:17:55;;;;;;;15.88;7.93;;;;;;;;;;4952610;28;20143;-74
2023/04/22 07:20:21;;;;;;;12.55;6.55;;;;;;;;;;4951171;29;20035;-75
2023/04/22 07:22:47;;;;;;;8.32;6.35;;;;;;;;;;4948400;28;20062;-74
2023/04/22 07:25:13;;;;;;;11.38;6.97;;;;;;;;;;4943304;29;20090;-74
2023/04/22 07:27:39;;;;;;;9.93;6.60;;;;;;;;;;4952655;29;20030;-74
2023/04/22 07:30:07;;;;;;;11.40;6.90;;;;;;;;;;4952790;29;20493;-73
2023/04/22 07:32:33;;;;;;;9.90;6.75;;;;;;;;;;4952551;28;20035;-74
2023/04/22 07:34:59;;;;;;;12.43;7.00;;;;;;;;;;4952623;29;20103;-73
2023/04/22 07:37:25;;;;;;;9.02;6.47;;;;;;;;;;4952493;29;20107;-73
2023/04/22 07:39:51;;;;;;;9.50;6.55;;;;;;;;;;4952396;28;20094;-73
2023/04/22 07:42:17;;;;;;;10.93;6.53;;;;;;;;;;4952474;28;20075;-74
2023/04/22 07:44:43;;;;;;;10.00;7.03;;;;;;;;;;4952521;28;20039;-73
2023/04/22 07:47:09;;;;;;;11.82;6.60;;;;;;;;;;4955976;29;20042;-73
2023/04/22 07:49:35;;;;;;;14.43;6.57;;;;;;;;;;4956222;29;20709;-74
2023/04/22 07:52:01;;;;;;;11.10;6.55;;;;;;;;;;4956218;28;20665;-73
2023/04/22 07:54:27;;;;;;;9.40;5.95;;;;;;;;;;4956200;29;20643;-73
2023/04/22 07:56:53;;;;;;;13.15;6.95;;;;;;;;;;4956071;29;20417;-75
2023/04/22 07:59:19;;;;;;;9.40;6.93;;;;;;;;;;4955535;29;20023;-74
2023/04/22 08:01:46;;;;;;;13.52;7.15;;;;;;;;;;4955857;28;20089;-74
2023/04/22 08:04:12;;;;;;;13.38;7.20;;;;;;;;;;4955815;28;20083;-75
2023/04/22 08:06:38;;;;;;;8.90;6.30;;;;;;;;;;4955632;29;20028;-75
2023/04/22 08:09:04;;;;;;;10.65;6.60;;;;;;;;;;4955587;29;20032;-75
2023/04/22 08:11:30;;;;;;;7.90;6.40;;;;;;;;;;4955643;28;20019;-75
2023/04/22 08:13:56;;;;;;;10.27;6.47;;;;;;;;;;4955605;29;20397;-74
2023/04/22 08:16:22;;;;;;;15.32;7.20;;;;;;;;;;4955417;28;20031;-73
2023/04/22 08:18:56;;;;;;;13.10;6.75;;;;;;;;;;4953631;29;20019;-74
2023/04/22 08:21:22;;;;;;;9.73;6.25;;;;;;;;;;4954375;28;20023;-74
2023/04/22 08:23:48;;;;;;;9.50;6.32;;;;;;;;;;4953838;29;20034;-75
2023/04/22 08:26:15;;;;;;;13.93;6.90;;;;;;;;;;4960101;28;20082;-74
2023/04/22 08:28:42;;;;;;;11.88;6.45;;;;;;;;;;4955207;28;20039;-73
2023/04/22 08:31:09;;;;;;;8.48;6.30;;;;;;;;;;4957469;28;20049;-72
2023/04/22 08:33:35;;;;;;;13.43;6.53;;;;;;;;;;4955735;29;20031;-74
2023/04/22 08:36:02;;;;;;;15.30;6.47;;;;;;;;;;4955486;28;20034;-73
2023/04/22 08:38:28;;;;;;;12.18;5.93;;;;;;;;;;4955009;29;20024;-73
2023/04/22 08:40:56;;;;;;;7.43;6.00;;;;;;;;;;4954985;29;20024;-73
2023/04/22 08:43:24;;;;;;;10.45;6.30;;;;;;;;;;4955046;28;20506;-73
2023/04/22 08:45:51;;;;;;;11.25;6.50;;;;;;;;;;4955056;28;20114;-73
2023/04/22 08:48:18;;;;;;;10.77;6.05;;;;;;;;;;4956927;28;20481;-74
2023/04/22 08:50:46;;;;;;;8.02;5.78;;;;;;;;;;4955922;28;20027;-74
2023/04/22 08:53:12;;;;;;;10.40;6.45;;;;;;;;;;4953317;28;20026;-74
2023/04/22 08:55:40;;;;;;;9.43;5.60;;;;;;;;;;4958123;28;20031;-74
2023/04/22 08:58:06;;;;;;;7.80;5.60;;;;;;;;;;4954494;28;20023;-72
2023/04/22 09:00:33;;;;;;;12.18;5.75;;;;;;;;;;4955709;29;20027;-73
2023/04/22 09:03:01;;;;;;;11.07;5.80;;;;;;;;;;4955184;28;20043;-73
2023/04/22 09:05:28;;;;;;;9.55;5.47;;;;;;;;;;4953461;29;20086;-73
2023/04/22 09:07:54;;;;;;;11.05;5.88;;;;;;;;;;4952653;28;20032;-73
2023/04/22 09:10:20;;;;;;;10.32;5.78;;;;;;;;;;4952709;28;20062;-75
2023/04/22 09:12:46;;;;;;;8.25;5.47;;;;;;;;;;4953082;28;20019;-74
2023/04/22 09:15:12;;;;;;;13.25;6.57;;;;;;;;;;4952857;29;20062;-75
2023/04/22 09:17:40;;;;;;;10.27;6.25;;;;;;;;;;4952739;29;20391;-74
2023/04/22 09:20:11;;;;;;;7.35;4.72;;;;;;;;;;4953566;28;20020;-75
2023/04/22 09:22:38;;;;;;;9.02;5.40;;;;;;;;;;4954455;28;20023;-74
2023/04/22 09:25:05;;;;;;;9.80;5.40;;;;;;;;;;4954550;29;20066;-74
2023/04/22 09:27:32;;;;;;;8.43;5.18;;;;;;;;;;4954467;28;20027;-74
2023/04/22 09:30:01;;;;;;;9.63;4.90;;;;;;;;;;4954444;29;20031;-75
2023/04/22 09:32:27;;;;;;;10.68;5.55;;;;;;;;;;4952775;28;20027;-75
2023/04/22 09:34:54;;;;;;;9.93;5.00;;;;;;;;;;4954234;29;20035;-73
2023/04/22 09:37:26;;;;;;;7.88;4.80;;;;;;;;;;4953866;29;20035;-73
2023/04/22 09:39:53;;;;;;;8.57;4.78;;;;;;;;;;4953913;29;20043;-74
2023/04/22 09:42:20;;;;;;;8.65;4.78;;;;;;;;;;4954212;28;20023;-73
2023/04/22 09:44:47;;;;;;;11.57;5.28;;;;;;;;;;4953975;29;20023;-73
2023/04/22 09:47:13;;;;;;;13.52;4.80;;;;;;;;;;4953801;29;20059;-73
2023/04/22 09:49:39;;;;;;;8.38;4.35;;;;;;;;;;4954044;29;20031;-73
2023/04/22 09:52:05;;;;;;;9.63;5.03;;;;;;;;;;4953726;28;20030;-73
2023/04/22 09:54:31;;;;;;;9.90;4.47;;;;;;;;;;4954037;29;20074;-73
2023/04/22 09:56:57;;;;;;;9.65;4.78;;;;;;;;;;4953780;29;20493;-74
2023/04/22 09:59:28;;;;;;;9.77;4.45;;;;;;;;;;4953794;28;20114;-73
2023/04/22 10:01:59;;;;;;;10.98;4.95;;;;;;;;;;4953599;28;20031;-72
2023/04/22 10:04:25;;;;;;;11.48;4.60;;;;;;;;;;4952338;28;20619;-73
2023/04/22 10:06:51;;;;;;;8.75;4.35;;;;;;;;;;4953670;28;20590;-74
2023/04/22 10:09:19;;;;;;;7.47;4.68;;;;;;;;;;4952411;28;20023;-73
2023/04/22 10:11:45;;;;;;;10.27;4.18;;;;;;;;;;4953848;28;20102;-73
2023/04/22 10:14:13;;;;;;;12.50;3.90;;;;;;;;;;4936363;29;20686;-74
2023/04/22 10:16:39;;;;;;;8.48;3.60;;;;;;;;;;4953629;29;20102;-74
2023/04/22 10:19:06;;;;;;;11.02;4.53;;;;;;;;;;4953288;28;20572;-73
2023/04/22 10:21:33;;;;;;;7.90;4.18;;;;;;;;;;4953457;28;20485;-74
2023/04/22 10:23:59;;;;;;;6.97;3.75;;;;;;;;;;4953745;29;20082;-74
2023/04/22 10:26:44;;;;;;;7.72;4.53;;;;;;;;;;4951953;29;20089;-74
2023/04/22 10:29:15;;;;;;;9.80;3.80;;;;;;;;;;4953295;29;20110;-76
2023/04/22 10:31:43;;;;;;;9.35;4.22;;;;;;;;;;4953078;28;20038;-74
2023/04/22 10:34:11;;;;;;;7.22;4.13;;;;;;;;;;4951380;29;20078;-72
2023/04/22 10:36:53;;;;;;;8.75;4.10;;;;;;;;;;4952600;29;20023;-73
2023/04/22 10:39:20;;;;;;;12.80;4.53;;;;;;;;;;4951009;29;20409;-73
2023/04/22 10:42:01;;;;;;;8.68;4.13;;;;;;;;;;4951085;28;20032;-73
2023/04/22 10:44:29;;;;;;;7.00;4.00;;;;;;;;;;4936969;29;20062;-74
2023/04/22 10:46:56;;;;;;;9.38;4.63;;;;;;;;;;4952680;29;20070;-73
2023/04/22 10:49:23;;;;;;;8.00;4.13;;;;;;;;;;4952247;29;20166;-74
2023/04/22 10:51:49;;;;;;;8.80;4.43;;;;;;;;;;4952577;28;20019;-74
2023/04/22 10:54:27;;;;;;;8.50;4.50;;;;;;;;;;4952452;29;20027;-73
2023/04/22 10:57:03;;;;;;;8.38;4.07;;;;;;;;;;4952586;29;20023;-73
2023/04/22 10:59:30;;;;;;;10.30;4.72;;;;;;;;;;4952639;29;20482;-73
2023/04/22 11:02:06;;;;;;;9.32;4.47;;;;;;;;;;4952662;28;20035;-73
2023/04/22 11:04:32;;;;;;;9.70;4.60;;;;;;;;;;4937566;29;20027;-73
2023/04/22 11:07:19;;;;;;;8.35;4.07;;;;;;;;;;4952169;28;20023;-76
2023/04/22 11:09:45;;;;;;;8.02;4.70;;;;;;;;;;4952495;29;20394;-74
2023/04/22 11:12:30;;;;;;;10.60;5.00;;;;;;;;;;4952194;28;20506;-74
2023/04/22 11:14:56;;;;;;;8.98;4.20;;;;;;;;;;4948047;29;20087;-74
2023/04/22 11:17:22;;;;;;;10.55;5.05;;;;;;;;;;4944039;29;20098;-73
2023/04/22 11:19:50;;;;;;;8.82;4.45;;;;;;;;;;4948507;28;20079;-74
2023/04/22 11:22:16;;;;;;;7.95;4.13;;;;;;;;;;4953897;28;20401;-73
2023/04/22 11:24:52;;;;;;;8.02;4.75;;;;;;;;;;4955873;29;20505;-72
2023/04/22 11:27:24;;;;;;;10.63;4.68;;;;;;;;;;4956179;29;20390;-73
2023/04/22 11:30:03;;;;;;;11.27;5.13;;;;;;;;;;4956438;29;20512;-73
2023/04/22 11:32:29;;;;;;;8.65;4.28;;;;;;;;;;4941072;29;20544;-73
2023/04/22 11:34:55;;;;;;;8.27;4.63;;;;;;;;;;4956597;29;20143;-73
2023/04/22 11:37:22;;;;;;;11.95;4.80;;;;;;;;;;4956198;29;20039;-73
2023/04/22 11:39:50;;;;;;;13.77;4.55;;;;;;;;;;4956351;28;20023;-75
2023/04/22 11:42:16;;;;;;;8.85;4.15;;;;;;;;;;4956176;28;20026;-75
2023/04/22 11:44:44;;;;;;;10.27;4.75;;;;;;;;;;4956079;29;20026;-75
2023/04/22 11:47:11;;;;;;;12.07;4.90;;;;;;;;;;4956112;28;20075;-74
2023/04/22 11:49:37;;;;;;;7.35;4.15;;;;;;;;;;4956274;29;20023;-74
2023/04/22 11:52:04;;;;;;;5.95;3.67;;;;;;;;;;4951972;28;20019;-74
2023/04/22 11:54:37;;;;;;;8.10;4.65;;;;;;;;;;4956238;29;20043;-74
2023/04/22 11:57:04;;;;;;;10.93;4.65;;;;;;;;;;4955554;28;20513;-78
2023/04/22 11:59:30;;;;;;;7.90;4.57;;;;;;;;;;4955827;29;20089;-74
2023/04/22 12:01:56;;;;;;;9.48;5.10;;;;;;;;;;4954573;28;20557;-74
2023/04/22 12:04:22;;;;;;;7.80;4.68;;;;;;;;;;4985838;23;20050;-72
2023/04/22 12:06:49;;;;;;;12.32;5.03;;;;;;;;;;4993942;28;20062;-72
2023/04/22 12:09:15;;;;;;;6.00;4.25;;;;;;;;;;4983456;28;20392;-72
2023/04/22 12:11:41;;;;;;;10.35;5.20;;;;;;;;;;4988409;28;20084;-71
2023/04/22 12:14:07;;;;;;;10.38;4.88;;;;;;;;;;4978206;28;20436;-72
2023/04/22 12:16:40;;;;;;;10.35;5.13;;;;;;;;;;4994239;28;20101;-71
2023/04/22 12:19:06;;;;;;;8.43;5.10;;;;;;;;;;4994353;28;20022;-72
2023/04/22 12:21:32;;;;;;;6.70;4.60;;;;;;;;;;4994355;28;20109;-72
2023/04/22 12:23:58;;;;;;;7.00;4.53;;;;;;;;;;4993976;28;20491;-72
2023/04/22 12:26:25;;;;;;;11.25;4.68;;;;;;;;;;4993831;28;20488;-72
2023/04/22 12:28:52;;;;;;;11.80;4.97;;;;;;;;;;4976053;28;20198;-71
2023/04/22 12:31:18;;;;;;;9.98;4.78;;;;;;;;;;4993283;28;20030;-72
2023/04/22 12:33:45;;;;;;;7.10;4.00;;;;;;;;;;4993552;28;20022;-71
2023/04/22 12:36:12;;;;;;;7.78;4.43;;;;;;;;;;4993705;28;20026;-72
2023/04/22 12:38:38;;;;;;;9.70;4.72;;;;;;;;;;4993410;28;20585;-71
2023/04/22 12:41:05;;;;;;;7.60;4.18;;;;;;;;;;4993652;28;20026;-71
2023/04/22 12:43:34;;;;;;;9.68;4.45;;;;;;;;;;4993401;28;20030;-72
2023/04/22 12:46:00;;;;;;;11.13;4.88;;;;;;;;;;4993214;28;20065;-72
2023/04/22 12:48:26;;;;;;;9.68;5.15;;;;;;;;;;4977054;28;20033;-72
2023/04/22 12:50:52;;;;;;;8.80;4.65;;;;;;;;;;4993564;28;20018;-71
2023/04/22 12:53:18;;;;;;;12.25;4.60;;;;;;;;;;4993409;28;20433;-72
2023/04/22 12:55:44;;;;;;;7.70;4.10;;;;;;;;;;4993113;28;20030;-71
2023/04/22 12:58:10;;;;;;;8.98;3.92;;;;;;;;;;4992615;28;20108;-71
2023/04/22 13:00:36;;;;;;;10.60;4.30;;;;;;;;;;4993557;28;20041;-70
2023/04/22 13:03:03;;;;;;;7.95;4.13;;;;;;;;;;4992955;28;20030;-72
2023/04/22 13:05:29;;;;;;;7.22;4.25;;;;;;;;;;4992825;28;20030;-71
2023/04/22 13:07:55;;;;;;;9.02;4.70;;;;;;;;;;4992569;28;20019;-70
2023/04/22 13:10:21;;;;;;;6.72;3.88;;;;;;;;;;4993359;28;20493;-71
2023/04/22 13:12:48;;;;;;;6.65;3.75;;;;;;;;;;4993181;28;20018;-71
2023/04/22 13:15:15;;;;;;;8.10;3.90;;;;;;;;;;4993121;28;20525;-71
2023/04/22 13:17:43;;;;;;;10.00;4.35;;;;;;;;;;4992632;28;20077;-71
2023/04/22 13:20:11;;;;;;;10.43;4.20;;;;;;;;;;4993104;28;20031;-70
2023/04/22 13:22:39;;;;;;;7.82;4.47;;;;;;;;;;4975587;28;20069;-69
2023/04/22 13:25:05;;;;;;;4.50;3.38;;;;;;;;;;4992720;28;20485;-72
2023/04/22 13:27:31;;;;;;;10.27;4.20;;;;;;;;;;4992193;28;20042;-71
2023/04/22 13:29:57;;;;;;;6.65;4.22;;;;;;;;;;4992920;28;20393;-71
2023/04/22 13:32:24;;;;;;;10.52;4.05;;;;;;;;;;4992830;28;20018;-71
2023/04/22 13:34:50;;;;;;;14.13;5.10;;;;;;;;;;4992969;28;20101;-71
2023/04/22 13:37:18;;;;;;;4.70;3.90;;;;;;;;;;4992446;28;20030;-70
2023/04/22 13:39:44;;;;;;;6.32;4.20;;;;;;;;;;4992626;28;20022;-71
2023/04/22 13:42:10;;;;;;;8.65;3.70;;;;;;;;;;4992502;28;20112;-71
2023/04/22 13:44:36;;;;;;;8.10;4.05;;;;;;;;;;4992500;28;20506;-71
2023/04/22 13:47:02;;;;;;;9.82;4.50;;;;;;;;;;4992396;28;20549;-71
2023/04/22 13:49:28;;;;;;;7.85;3.78;;;;;;;;;;4992613;28;20018;-71
2023/04/22 13:51:55;;;;;;;7.07;3.88;;;;;;;;;;4974909;28;20023;-71
2023/04/22 13:54:21;;;;;;;7.68;4.10;;;;;;;;;;4991993;28;20036;-70
2023/04/22 13:56:47;;;;;;;7.05;3.70;;;;;;;;;;4992478;28;20416;-71
2023/04/22 13:59:13;;;;;;;8.32;3.90;;;;;;;;;;4992355;28;20028;-71
2023/04/22 14:01:39;;;;;;;8.32;4.05;;;;;;;;;;4992384;28;20286;-71
2023/04/22 14:04:05;;;;;;;8.45;4.25;;;;;;;;;;4991996;28;20057;-71
2023/04/22 14:06:31;;;;;;;5.65;3.80;;;;;;;;;;4992266;28;20113;-70
2023/04/22 14:08:58;;;;;;;5.93;3.90;;;;;;;;;;4991887;28;20041;-73
2023/04/22 14:11:24;;;;;;;8.32;4.32;;;;;;;;;;4992346;28;20073;-72
2023/04/22 14:13:50;;;;;;;8.82;4.25;;;;;;;;;;4991977;28;20018;-73
2023/04/22 14:16:17;;;;;;;9.27;3.90;;;;;;;;;;4992158;28;20394;-72
2023/04/22 14:18:44;;;;;;;7.93;4.40;;;;;;;;;;4992426;28;20023;-71
2023/04/22 14:21:11;;;;;;;7.30;3.88;;;;;;;;;;4992497;28;20030;-72
2023/04/22 14:23:40;;;;;;;10.05;4.60;;;;;;;;;;4991999;28;20022;-71
2023/04/22 14:26:11;;;;;;;6.13;4.05;;;;;;;;;;4991644;28;20080;-71
2023/04/22 14:28:38;;;;;;;6.68;4.60;;;;;;;;;;4991773;28;20500;-70
2023/04/22 14:31:04;;;;;;;6.75;4.13;;;;;;;;;;4992354;28;20030;-70